Time;durP1;ratioP1;P1;durP2;ratioP2;P2;SDS_P1;SDS_P2;PMS_P1;PMS_P2;Temp;Humidity;BMP_temperature;BMP_pressure;BME280_temperature;BME280_humidity;BME280_pressure;Samples;Min_cycle;Max_cycle;Signal;HPM_P1;HPM_P2
2021/11/30 00:01:32;;;;;;;5.20;2.38;;;5.70;99.90;;;;;;5054514;28;20033;-78
2021/11/30 00:03:58;;;;;;;8.18;2.28;;;5.70;99.90;;;;;;5055477;28;20025;-77
2021/11/30 00:06:27;;;;;;;8.55;2.65;;;5.70;99.90;;;;;;5057916;28;20079;-78
2021/11/30 00:08:58;;;;;;;13.30;3.03;;;5.70;99.90;;;;;;5058999;28;20048;-77
2021/11/30 00:11:24;;;;;;;17.00;3.17;;;5.70;99.90;;;;;;5064429;28;20025;-77
2021/11/30 00:13:50;;;;;;;5.22;1.70;;;5.70;99.90;;;;;;5063933;28;20082;-78
2021/11/30 00:16:16;;;;;;;7.70;2.03;;;5.80;99.90;;;;;;5057873;28;20047;-78
2021/11/30 00:18:42;;;;;;;5.03;1.77;;;5.80;99.90;;;;;;5054725;28;20473;-78
2021/11/30 00:21:10;;;;;;;5.07;1.77;;;5.80;99.90;;;;;;5054335;28;20017;-77
2021/11/30 00:23:37;;;;;;;8.02;1.95;;;5.80;99.90;;;;;;5053765;28;20442;-77
2021/11/30 00:26:04;;;;;;;10.60;2.10;;;5.80;99.90;;;;;;5054253;28;20110;-79
2021/11/30 00:28:29;;;;;;;4.80;1.42;;;5.80;99.90;;;;;;5054081;28;20483;-76
2021/11/30 00:30:55;;;;;;;3.08;1.23;;;5.80;99.90;;;;;;5053459;28;20021;-78
2021/11/30 00:33:24;;;;;;;2.47;0.90;;;5.70;99.90;;;;;;5054332;28;20427;-78
2021/11/30 00:35:50;;;;;;;3.03;1.13;;;5.70;99.90;;;;;;5054541;28;20029;-77
2021/11/30 00:38:17;;;;;;;3.75;1.33;;;5.70;99.90;;;;;;5053556;28;20031;-78
2021/11/30 00:40:44;;;;;;;5.85;1.10;;;5.70;99.90;;;;;;5054268;28;20079;-78
2021/11/30 00:43:18;;;;;;;4.35;1.73;;;5.70;99.90;;;;;;5053872;28;20427;-77
2021/11/30 00:45:57;;;;;;;6.28;1.00;;;5.70;99.90;;;;;;5054177;28;20441;-78
2021/11/30 00:48:29;;;;;;;2.97;0.95;;;5.60;99.90;;;;;;5054371;28;20075;-78
2021/11/30 00:50:55;;;;;;;6.88;1.00;;;5.60;99.90;;;;;;5052917;28;20424;-77
2021/11/30 00:53:21;;;;;;;8.63;1.30;;;5.60;99.90;;;;;;5054137;28;20142;-77
2021/11/30 00:55:47;;;;;;;2.42;1.42;;;5.60;99.90;;;;;;5053805;28;20064;-76
2021/11/30 00:58:13;;;;;;;8.20;2.35;;;5.50;99.90;;;;;;5053225;28;20091;-76
2021/11/30 01:00:39;;;;;;;5.95;2.72;;;5.50;99.90;;;;;;5053933;28;20436;-76
2021/11/30 01:03:06;;;;;;;4.20;1.77;;;5.50;99.90;;;;;;5054299;28;20461;-76
2021/11/30 01:05:38;;;;;;;7.57;2.40;;;5.40;99.90;;;;;;5054126;28;20112;-77
2021/11/30 01:08:05;;;;;;;10.07;2.65;;;5.40;99.90;;;;;;5053574;28;20441;-79
2021/11/30 01:10:31;;;;;;;7.05;2.38;;;5.30;99.90;;;;;;5054294;28;20060;-76
2021/11/30 01:12:56;;;;;;;3.78;3.03;;;5.20;99.90;;;;;;5052837;28;20021;-76
2021/11/30 01:15:23;;;;;;;9.30;2.72;;;5.20;99.90;;;;;;5053694;28;20028;-77
2021/11/30 01:17:48;;;;;;;7.75;3.20;;;5.10;99.90;;;;;;5053786;28;20028;-76
2021/11/30 01:20:15;;;;;;;7.40;3.47;;;5.20;99.90;;;;;;5053174;28;20033;-77
2021/11/30 01:22:41;;;;;;;9.57;4.05;;;5.10;99.90;;;;;;5053383;28;20021;-77
2021/11/30 01:25:08;;;;;;;6.30;3.63;;;5.10;99.90;;;;;;5053027;28;20031;-78
2021/11/30 01:27:34;;;;;;;11.63;3.50;;;5.10;99.90;;;;;;5052824;28;20024;-76
2021/11/30 01:29:59;;;;;;;6.35;3.75;;;5.10;99.90;;;;;;5053219;28;20104;-79
2021/11/30 01:32:25;;;;;;;11.07;5.43;;;5.20;99.90;;;;;;5052887;28;20433;-79
2021/11/30 01:34:51;;;;;;;6.13;4.00;;;5.20;99.90;;;;;;5053173;28;20025;-78
2021/11/30 01:37:17;;;;;;;9.30;4.32;;;5.20;99.90;;;;;;5053082;28;20020;-78
2021/11/30 01:39:45;;;;;;;7.82;4.55;;;5.20;99.90;;;;;;5053195;28;20033;-78
2021/11/30 01:42:13;;;;;;;8.48;4.25;;;5.10;99.90;;;;;;5054853;28;20049;-78
2021/11/30 01:44:56;;;;;;;7.25;3.97;;;5.10;99.90;;;;;;5048377;28;20511;-79
2021/11/30 01:49:58;;;;;;;10.13;4.38;;;5.20;99.90;;;;;;5052787;28;20063;-79
2021/11/30 01:52:25;;;;;;;7.82;3.83;;;5.20;99.90;;;;;;5052763;28;20032;-79
2021/11/30 01:54:51;;;;;;;5.30;4.80;;;5.20;99.90;;;;;;5052029;28;20100;-78
2021/11/30 01:57:23;;;;;;;6.55;4.25;;;5.20;99.90;;;;;;5054874;28;20090;-78
2021/11/30 01:59:50;;;;;;;7.88;4.50;;;5.20;99.90;;;;;;5066340;28;20041;-78
2021/11/30 02:02:18;;;;;;;6.93;3.85;;;5.20;99.90;;;;;;5051187;28;20032;-78
2021/11/30 02:04:44;;;;;;;4.65;3.72;;;5.20;99.90;;;;;;5053241;28;20109;-77
2021/11/30 02:07:10;;;;;;;6.63;4.00;;;5.20;99.90;;;;;;5054076;28;20041;-77
2021/11/30 02:09:37;;;;;;;8.48;5.47;;;5.30;99.90;;;;;;5063796;28;20500;-78
2021/11/30 02:12:04;;;;;;;7.40;4.55;;;5.30;99.90;;;;;;5055518;28;20073;-78
2021/11/30 02:14:32;;;;;;;7.03;4.32;;;5.30;99.90;;;;;;5067956;28;20072;-78
2021/11/30 02:17:00;;;;;;;3.20;2.90;;;5.30;99.90;;;;;;5051582;28;20053;-77
2021/11/30 02:19:27;;;;;;;4.78;4.13;;;5.40;99.90;;;;;;5052706;28;20064;-78
2021/11/30 02:21:53;;;;;;;3.42;2.35;;;5.40;99.90;;;;;;5038570;28;20384;-78
2021/11/30 02:24:18;;;;;;;5.32;3.33;;;5.40;99.90;;;;;;5052385;28;20028;-78
2021/11/30 02:26:44;;;;;;;4.43;3.90;;;5.50;99.90;;;;;;5052717;28;20388;-78
2021/11/30 02:29:11;;;;;;;4.65;3.40;;;5.50;99.90;;;;;;5051724;28;20107;-78
2021/11/30 02:31:46;;;;;;;4.55;3.63;;;5.50;99.90;;;;;;5053530;28;20064;-77
2021/11/30 02:34:14;;;;;;;4.47;4.03;;;5.50;99.90;;;;;;5053178;28;20025;-79
2021/11/30 02:39:12;;;;;;;3.78;3.47;;;5.60;99.90;;;;;;5053621;28;20064;-80
2021/11/30 02:41:40;;;;;;;4.88;3.33;;;5.60;99.90;;;;;;5053441;28;20036;-78
2021/11/30 02:44:07;;;;;;;4.30;3.90;;;5.60;99.90;;;;;;5052383;28;20465;-77
2021/11/30 02:46:42;;;;;;;5.18;3.78;;;5.70;99.90;;;;;;5053442;28;20025;-80
2021/11/30 02:49:11;;;;;;;3.47;3.25;;;5.60;99.90;;;;;;5052913;28;20401;-78
2021/11/30 02:51:40;;;;;;;3.95;3.55;;;5.70;99.90;;;;;;5052503;28;20361;-79
2021/11/30 02:54:09;;;;;;;3.38;2.83;;;5.70;99.90;;;;;;5051911;28;20520;-79
2021/11/30 02:56:43;;;;;;;3.95;3.22;;;5.70;99.90;;;;;;5051729;28;20025;-79
2021/11/30 02:59:09;;;;;;;3.40;3.10;;;5.80;99.90;;;;;;5051085;28;20044;-79
2021/11/30 03:01:36;;;;;;;1.95;1.85;;;5.80;99.90;;;;;;5052146;28;20021;-80
2021/11/30 03:04:12;;;;;;;3.40;3.10;;;5.90;99.90;;;;;;5050989;28;20219;-79
2021/11/30 03:06:39;;;;;;;3.65;3.35;;;5.80;99.90;;;;;;5051625;28;20104;-81
2021/11/30 03:09:04;;;;;;;3.83;3.10;;;5.90;99.90;;;;;;5051473;28;20029;-78
2021/11/30 03:11:30;;;;;;;3.95;3.65;;;5.90;99.90;;;;;;5050978;28;20052;-78
2021/11/30 03:13:55;;;;;;;4.05;3.35;;;5.90;99.90;;;;;;5053216;28;20477;-78
2021/11/30 03:16:21;;;;;;;4.10;3.63;;;6.00;99.90;;;;;;5057382;28;20029;-79
2021/11/30 03:18:47;;;;;;;3.63;3.33;;;6.40;99.90;;;;;;5055196;28;20029;-78
2021/11/30 03:21:12;;;;;;;4.63;4.22;;;6.00;99.90;;;;;;5056153;28;20025;-78
2021/11/30 03:23:38;;;;;;;6.20;4.38;;;6.00;99.90;;;;;;5056227;28;20104;-80
2021/11/30 03:26:03;;;;;;;6.25;4.13;;;6.00;99.90;;;;;;5054436;28;20369;-78
2021/11/30 03:28:29;;;;;;;4.22;3.85;;;6.10;99.90;;;;;;5055648;28;20365;-78
2021/11/30 03:31:04;;;;;;;4.30;4.00;;;6.10;99.90;;;;;;5055209;28;20092;-78
2021/11/30 03:36:14;;;;;;;5.00;4.60;;;6.20;99.90;;;;;;5055254;28;20035;-78
2021/11/30 03:38:40;;;;;;;5.15;4.75;;;6.20;99.90;;;;;;5055381;28;20032;-78
2021/11/30 03:41:07;;;;;;;5.07;4.50;;;6.30;99.90;;;;;;5054491;28;20120;-78
2021/11/30 03:43:33;;;;;;;5.72;5.22;;;6.50;99.90;;;;;;5055476;28;20095;-79
2021/11/30 03:45:58;;;;;;;7.93;5.38;;;6.50;99.90;;;;;;5054999;28;20457;-79
2021/11/30 03:48:24;;;;;;;5.55;4.28;;;6.60;99.90;;;;;;5054687;28;20036;-78
2021/11/30 03:50:49;;;;;;;6.55;3.85;;;6.70;99.90;;;;;;5055025;28;20032;-78
2021/11/30 03:53:15;;;;;;;6.65;4.32;;;6.90;99.90;;;;;;5054422;28;20040;-78
2021/11/30 03:55:41;;;;;;;4.38;3.33;;;7.20;99.90;;;;;;5055237;28;20473;-77
2021/11/30 03:58:06;;;;;;;5.93;3.72;;;7.40;99.90;;;;;;5056920;28;20350;-79
2021/11/30 04:00:32;;;;;;;7.07;3.80;;;7.50;99.90;;;;;;5066479;28;20028;-78
2021/11/30 04:02:58;;;;;;;7.13;4.10;;;7.60;99.90;;;;;;5057510;28;20025;-80
2021/11/30 04:05:24;;;;;;;5.15;2.75;;;7.60;99.90;;;;;;5054977;28;20028;-79
2021/11/30 04:07:49;;;;;;;4.35;2.45;;;7.80;99.90;;;;;;5054126;28;20485;-79
2021/11/30 04:10:15;;;;;;;5.15;3.25;;;7.90;99.90;;;;;;5066934;28;20052;-80
2021/11/30 04:12:41;;;;;;;3.13;2.05;;;7.90;99.90;;;;;;5058950;28;20021;-78
2021/11/30 04:15:07;;;;;;;5.28;2.40;;;8.50;99.90;;;;;;5067745;28;20020;-77
2021/11/30 04:17:33;;;;;;;7.97;2.80;;;7.90;99.90;;;;;;5061130;28;20118;-80
2021/11/30 04:19:59;;;;;;;4.10;2.58;;;7.90;99.90;;;;;;5054811;28;20488;-79
2021/11/30 04:22:24;;;;;;;7.10;2.10;;;8.00;99.90;;;;;;5054988;28;20052;-78
2021/11/30 04:24:50;;;;;;;3.95;1.83;;;8.00;99.90;;;;;;5054467;28;20078;-79
2021/11/30 04:27:16;;;;;;;2.25;1.85;;;8.10;99.90;;;;;;5054118;28;20096;-78
2021/11/30 04:29:43;;;;;;;6.45;1.95;;;8.10;99.90;;;;;;5054521;28;20527;-81
2021/11/30 04:32:09;;;;;;;4.03;2.35;;;8.10;99.90;;;;;;5054229;28;20017;-80
2021/11/30 04:34:35;;;;;;;3.38;1.73;;;8.10;99.90;;;;;;5054746;28;20029;-81
2021/11/30 04:37:00;;;;;;;2.75;2.20;;;8.10;99.90;;;;;;5054687;28;20036;-79
2021/11/30 04:39:26;;;;;;;3.10;2.05;;;8.20;99.90;;;;;;5054808;28;20082;-80
2021/11/30 04:41:51;;;;;;;4.80;3.33;;;8.20;99.90;;;;;;5054677;28;20026;-80
2021/11/30 04:44:19;;;;;;;10.18;3.30;;;8.20;99.90;;;;;;5053441;28;20033;-79
2021/11/30 04:46:55;;;;;;;4.15;2.25;;;8.20;99.90;;;;;;5054013;28;20086;-80
2021/11/30 04:49:39;;;;;;;4.25;2.38;;;8.20;99.90;;;;;;5056548;28;20025;-79
2021/11/30 04:52:08;;;;;;;3.65;2.10;;;8.20;99.90;;;;;;5054250;28;20082;-80
2021/11/30 04:54:37;;;;;;;4.85;3.00;;;8.20;99.90;;;;;;5054045;28;20056;-79
2021/11/30 04:57:04;;;;;;;5.20;2.67;;;8.20;99.90;;;;;;5053838;28;20025;-78
2021/11/30 04:59:29;;;;;;;11.55;3.85;;;8.30;99.90;;;;;;5054167;28;20338;-80
2021/11/30 05:01:55;;;;;;;4.68;2.03;;;8.30;99.90;;;;;;5055220;28;20427;-80
2021/11/30 05:04:21;;;;;;;3.42;2.17;;;8.30;99.90;;;;;;5054275;28;20033;-80
2021/11/30 05:06:46;;;;;;;3.88;2.90;;;8.40;99.90;;;;;;5053916;28;20017;-80
2021/11/30 05:09:12;;;;;;;5.60;3.10;;;8.30;99.90;;;;;;5053831;28;20033;-80
2021/11/30 05:11:38;;;;;;;7.53;3.35;;;8.40;99.90;;;;;;5053489;28;20025;-81
2021/11/30 05:14:04;;;;;;;9.48;3.58;;;8.40;99.90;;;;;;5053758;28;20496;-80
2021/11/30 05:16:30;;;;;;;8.20;3.58;;;8.40;99.90;;;;;;5053699;28;20050;-80
2021/11/30 05:18:56;;;;;;;3.10;2.13;;;8.40;99.90;;;;;;5053335;28;20480;-80
2021/11/30 05:21:22;;;;;;;6.03;2.53;;;8.40;99.90;;;;;;5053490;28;20496;-80
2021/11/30 05:23:48;;;;;;;2.17;1.88;;;8.40;99.90;;;;;;5053367;28;20033;-79
2021/11/30 05:26:14;;;;;;;6.55;3.10;;;8.50;99.90;;;;;;5052523;28;20029;-79
2021/11/30 05:28:42;;;;;;;8.60;2.53;;;8.50;99.90;;;;;;5053592;28;20461;-79
2021/11/30 05:31:09;;;;;;;6.22;3.13;;;8.50;99.90;;;;;;5053499;28;20021;-80
2021/11/30 05:33:36;;;;;;;5.72;3.83;;;8.50;99.90;;;;;;5052768;28;20028;-80
2021/11/30 05:36:03;;;;;;;4.50;2.65;;;8.50;99.90;;;;;;5053360;28;20017;-80
2021/11/30 05:38:29;;;;;;;12.10;3.13;;;8.60;99.90;;;;;;5051996;28;20076;-81
2021/11/30 05:40:55;;;;;;;10.70;3.80;;;8.50;99.90;;;;;;5052432;28;20017;-80
2021/11/30 05:43:21;;;;;;;14.52;5.45;;;8.60;99.90;;;;;;5053497;28;20029;-78
2021/11/30 05:45:47;;;;;;;12.43;4.00;;;8.60;99.90;;;;;;5052689;28;20522;-79
2021/11/30 05:48:13;;;;;;;15.30;4.47;;;8.70;99.90;;;;;;5053167;28;20178;-79
2021/11/30 05:50:40;;;;;;;7.85;4.43;;;8.70;99.90;;;;;;5052934;28;20025;-80
2021/11/30 05:53:06;;;;;;;8.18;3.92;;;8.70;99.90;;;;;;5052121;28;20021;-80
2021/11/30 05:55:32;;;;;;;9.95;4.13;;;8.70;99.90;;;;;;5052834;28;20021;-80
2021/11/30 05:57:58;;;;;;;5.88;4.18;;;8.70;99.90;;;;;;5053432;28;20051;-80
2021/11/30 06:00:27;;;;;;;6.10;3.05;;;8.70;99.90;;;;;;5053307;28;20059;-81
2021/11/30 06:03:07;;;;;;;12.23;4.72;;;8.70;99.90;;;;;;5071570;28;20024;-80
2021/11/30 06:05:34;;;;;;;8.70;4.05;;;8.70;99.90;;;;;;5055036;28;20130;-79
2021/11/30 06:08:00;;;;;;;11.75;4.80;;;8.80;99.90;;;;;;5052144;28;20060;-80
2021/11/30 06:10:26;;;;;;;11.93;4.70;;;8.80;99.90;;;;;;5053595;28;20040;-79
2021/11/30 06:12:52;;;;;;;13.60;4.40;;;8.80;99.90;;;;;;5070503;28;20051;-79
2021/11/30 06:15:18;;;;;;;9.32;3.97;;;8.80;99.90;;;;;;5053542;28;20449;-80
2021/11/30 06:17:43;;;;;;;10.70;4.65;;;8.80;99.90;;;;;;5070469;28;20098;-79
2021/11/30 06:20:11;;;;;;;12.30;4.90;;;8.80;99.90;;;;;;5054584;28;20067;-79
2021/11/30 06:22:40;;;;;;;14.13;4.97;;;8.90;99.90;;;;;;5054839;28;20123;-81
2021/11/30 06:25:07;;;;;;;15.95;6.38;;;8.80;99.90;;;;;;5052903;28;20075;-80
2021/11/30 06:27:33;;;;;;;9.50;5.07;;;8.80;99.90;;;;;;5052779;28;20025;-79
2021/11/30 06:30:02;;;;;;;12.52;5.93;;;8.90;99.90;;;;;;5052502;28;20029;-81
2021/11/30 06:32:28;;;;;;;12.25;5.20;;;8.80;99.90;;;;;;5051939;28;20052;-81
2021/11/30 06:34:53;;;;;;;14.52;5.13;;;8.90;99.90;;;;;;5051653;28;20461;-80
2021/11/30 06:37:19;;;;;;;12.10;4.22;;;8.80;99.90;;;;;;5051885;28;20033;-79
2021/11/30 06:39:45;;;;;;;16.25;5.30;;;8.90;99.90;;;;;;5052321;28;20124;-80
2021/11/30 06:42:11;;;;;;;10.27;3.25;;;8.90;99.90;;;;;;5050904;28;20407;-80
2021/11/30 06:44:37;;;;;;;17.08;5.45;;;8.90;99.90;;;;;;5052224;28;20025;-80
2021/11/30 06:47:04;;;;;;;15.65;5.18;;;8.90;99.90;;;;;;5052472;28;20036;-79
2021/11/30 06:49:30;;;;;;;16.38;5.55;;;8.90;99.90;;;;;;5052702;28;20033;-80
2021/11/30 06:51:59;;;;;;;15.82;5.82;;;9.00;99.90;;;;;;5052019;28;20032;-80
2021/11/30 06:54:24;;;;;;;17.13;4.72;;;8.90;99.90;;;;;;5051398;28;20492;-80
2021/11/30 06:56:50;;;;;;;18.23;5.50;;;9.00;99.90;;;;;;5052124;28;20025;-79
2021/11/30 06:59:18;;;;;;;21.55;6.32;;;9.00;99.90;;;;;;5051746;28;20377;-79
2021/11/30 07:01:44;;;;;;;16.15;4.68;;;9.00;99.90;;;;;;5053676;28;20021;-78
2021/11/30 07:04:10;;;;;;;16.45;4.57;;;9.00;99.90;;;;;;5051709;28;20029;-79
2021/11/30 07:14:06;;;;;;;13.45;4.05;;;9.10;99.90;;;;;;5051988;28;20044;-77
2021/11/30 07:16:34;;;;;;;16.38;4.97;;;9.10;99.90;;;;;;5051345;28;20431;-78
2021/11/30 07:19:00;;;;;;;13.00;4.57;;;9.10;99.90;;;;;;5046240;28;20038;-81
2021/11/30 07:21:26;;;;;;;15.75;4.03;;;9.10;99.90;;;;;;5034403;28;20024;-81
2021/11/30 07:23:53;;;;;;;12.55;3.95;;;9.20;99.90;;;;;;5035722;28;20025;-79
2021/11/30 07:26:19;;;;;;;13.88;4.55;;;9.20;99.90;;;;;;5033877;28;20274;-79
2021/11/30 07:28:45;;;;;;;10.85;3.90;;;9.20;99.90;;;;;;5036748;28;20366;-78
2021/11/30 07:31:12;;;;;;;15.90;3.80;;;9.30;99.90;;;;;;5030138;28;20071;-79
2021/11/30 07:33:42;;;;;;;15.95;4.22;;;9.30;99.90;;;;;;5036641;28;20028;-80
2021/11/30 07:36:11;;;;;;;16.45;3.30;;;9.20;99.90;;;;;;5032408;28;20112;-79
2021/11/30 07:38:39;;;;;;;12.13;3.78;;;9.20;99.90;;;;;;5044556;28;20029;-79
2021/11/30 07:41:05;;;;;;;6.47;4.68;;;9.20;99.90;;;;;;5052480;28;20017;-86
2021/11/30 07:43:31;;;;;;;14.80;3.65;;;9.30;99.90;;;;;;5048788;28;20029;-86
2021/11/30 07:45:57;;;;;;;9.82;3.40;;;9.30;99.90;;;;;;5051362;28;20428;-87
2021/11/30 07:48:23;;;;;;;12.65;3.00;;;9.30;99.90;;;;;;5047879;28;20025;-86
2021/11/30 07:50:49;;;;;;;11.05;4.05;;;9.30;99.90;;;;;;5056998;28;20032;-85
2021/11/30 07:53:15;;;;;;;9.95;3.17;;;9.30;99.90;;;;;;5055238;28;20079;-86
2021/11/30 07:55:41;;;;;;;9.25;3.15;;;9.40;99.90;;;;;;5063444;28;20060;-88
2021/11/30 07:58:07;;;;;;;8.23;2.40;;;9.40;99.90;;;;;;5053470;28;20025;-86
2021/11/30 08:00:33;;;;;;;10.77;4.30;;;9.40;99.90;;;;;;5052079;28;20109;-86
2021/11/30 08:02:58;;;;;;;7.88;3.10;;;9.40;99.90;;;;;;5058883;28;20018;-85
2021/11/30 08:05:24;;;;;;;7.45;3.42;;;9.40;99.90;;;;;;5069239;28;20063;-87
2021/11/30 08:07:49;;;;;;;8.88;3.08;;;9.40;99.90;;;;;;5056422;28;20113;-88
2021/11/30 08:10:18;;;;;;;6.00;2.22;;;9.40;99.90;;;;;;5056385;28;20017;-88
2021/11/30 08:12:45;;;;;;;7.15;2.58;;;9.40;99.90;;;;;;5055582;28;20021;-85
2021/11/30 08:15:12;;;;;;;8.57;3.72;;;9.40;99.90;;;;;;5063562;28;20017;-86
2021/11/30 08:17:39;;;;;;;9.68;2.88;;;9.50;99.90;;;;;;5061729;28;20018;-86
2021/11/30 08:20:05;;;;;;;11.35;3.45;;;9.50;99.90;;;;;;5073640;28;20068;-87
2021/11/30 08:22:31;;;;;;;17.70;4.03;;;9.50;99.90;;;;;;5057693;28;20017;-85
2021/11/30 08:24:57;;;;;;;11.35;3.80;;;9.50;99.90;;;;;;5050590;28;20040;-88
2021/11/30 08:27:23;;;;;;;9.25;2.67;;;9.50;99.90;;;;;;5066840;28;20497;-87
2021/11/30 08:29:50;;;;;;;7.18;3.15;;;9.50;99.90;;;;;;5064863;28;20025;-87
2021/11/30 08:32:20;;;;;;;10.32;3.63;;;9.50;99.90;;;;;;5070471;28;20017;-88
2021/11/30 08:34:46;;;;;;;17.97;4.20;;;9.60;99.90;;;;;;5068821;28;20078;-87
2021/11/30 08:37:12;;;;;;;10.82;3.08;;;9.50;99.90;;;;;;5063193;28;20354;-86
2021/11/30 08:39:38;;;;;;;10.93;3.00;;;9.60;99.90;;;;;;5063403;28;20128;-88
2021/11/30 08:42:06;;;;;;;10.48;3.58;;;9.60;99.90;;;;;;5055462;28;20032;-89
2021/11/30 08:44:31;;;;;;;17.42;3.25;;;9.60;99.90;;;;;;5046642;28;20477;-88
2021/11/30 08:46:58;;;;;;;7.47;3.92;;;9.60;99.90;;;;;;5054353;28;20009;-83
2021/11/30 08:49:25;;;;;;;13.80;3.30;;;9.60;99.90;;;;;;5054120;28;20029;-82
2021/11/30 08:51:51;;;;;;;11.48;2.90;;;9.60;99.90;;;;;;5054437;28;20036;-81
2021/11/30 08:54:17;;;;;;;8.35;3.53;;;9.60;99.90;;;;;;5053781;28;20377;-85
2021/11/30 08:56:43;;;;;;;17.98;3.42;;;9.60;99.90;;;;;;5052471;28;20029;-84
2021/11/30 08:59:11;;;;;;;11.85;3.30;;;9.70;99.90;;;;;;5055887;28;20086;-85
2021/11/30 09:01:40;;;;;;;17.05;3.72;;;9.70;99.90;;;;;;5051532;28;20025;-86
2021/11/30 09:04:05;;;;;;;10.73;2.97;;;10.40;99.90;;;;;;5053177;28;20067;-84
2021/11/30 09:06:31;;;;;;;11.77;3.60;;;9.70;99.90;;;;;;5052574;28;20055;-82
2021/11/30 09:08:57;;;;;;;29.23;3.88;;;9.70;99.90;;;;;;5052903;28;20093;-81
2021/11/30 09:11:23;;;;;;;14.43;3.90;;;9.60;99.90;;;;;;5051049;28;20052;-81
2021/11/30 09:13:49;;;;;;;8.73;2.90;;;9.70;99.90;;;;;;5053808;28;20033;-85
2021/11/30 09:16:14;;;;;;;11.50;3.15;;;9.70;99.90;;;;;;5053428;28;20381;-82
2021/11/30 09:18:40;;;;;;;19.90;4.35;;;9.70;99.90;;;;;;5052569;28;20476;-80
2021/11/30 09:21:05;;;;;;;19.73;3.67;;;9.80;99.90;;;;;;5052616;28;20019;-81
2021/11/30 09:23:31;;;;;;;12.43;2.45;;;9.70;99.90;;;;;;5052544;28;20029;-82
2021/11/30 09:25:57;;;;;;;11.85;3.25;;;9.80;99.90;;;;;;5053574;28;20108;-79
2021/11/30 09:28:23;;;;;;;11.38;2.97;;;9.80;99.90;;;;;;5061619;28;20017;-80
2021/11/30 09:30:49;;;;;;;7.50;2.10;;;9.80;99.90;;;;;;5053176;28;20435;-80
2021/11/30 09:33:15;;;;;;;12.75;3.47;;;9.90;99.90;;;;;;5053194;28;20025;-79
2021/11/30 09:35:41;;;;;;;12.35;3.75;;;9.90;99.90;;;;;;5044100;28;20481;-80
2021/11/30 09:38:07;;;;;;;4.70;2.40;;;9.90;99.90;;;;;;5047470;28;20052;-81
2021/11/30 09:40:34;;;;;;;10.00;2.25;;;9.90;99.90;;;;;;5055291;28;20128;-83
2021/11/30 09:43:00;;;;;;;11.23;3.50;;;9.90;99.90;;;;;;5053077;28;20381;-83
2021/11/30 09:45:27;;;;;;;8.35;2.30;;;9.90;99.90;;;;;;5052362;28;20101;-83
2021/11/30 09:47:54;;;;;;;6.88;2.15;;;10.00;99.90;;;;;;5053860;28;20476;-82
2021/11/30 09:50:21;;;;;;;17.73;2.80;;;10.00;99.90;;;;;;5053479;28;20499;-84
2021/11/30 09:52:53;;;;;;;14.80;2.45;;;10.00;99.90;;;;;;5054909;28;20037;-84
2021/11/30 09:55:22;;;;;;;10.55;1.90;;;10.00;99.90;;;;;;5056227;28;20028;-85
2021/11/30 09:57:49;;;;;;;10.48;2.72;;;10.10;99.90;;;;;;5053996;28;20025;-84
2021/11/30 10:00:18;;;;;;;13.20;2.60;;;10.10;99.90;;;;;;5052595;28;20029;-84
2021/11/30 10:02:43;;;;;;;18.67;3.63;;;10.10;99.90;;;;;;5055010;28;20109;-85
2021/11/30 10:05:09;;;;;;;9.27;2.83;;;10.20;99.90;;;;;;5056334;28;20048;-84
2021/11/30 10:07:39;;;;;;;8.07;2.63;;;10.20;99.90;;;;;;5057060;28;20082;-83
2021/11/30 10:10:30;;;;;;;12.57;3.08;;;10.20;99.90;;;;;;5054457;28;20079;-84
2021/11/30 10:13:05;;;;;;;6.30;2.35;;;10.20;99.90;;;;;;5054229;28;20032;-83
2021/11/30 10:15:47;;;;;;;11.20;2.85;;;10.20;99.90;;;;;;5043256;28;20055;-83
2021/11/30 10:18:24;;;;;;;12.32;2.70;;;10.20;99.90;;;;;;5057195;28;20060;-84
2021/11/30 10:20:56;;;;;;;14.50;2.80;;;10.20;99.90;;;;;;5058585;28;20082;-83
2021/11/30 10:23:24;;;;;;;8.60;2.72;;;10.20;99.90;;;;;;5055944;28;20485;-84
2021/11/30 10:25:50;;;;;;;14.20;3.10;;;10.20;99.90;;;;;;5054265;28;20549;-84
2021/11/30 10:28:20;;;;;;;9.30;3.25;;;10.20;99.90;;;;;;5052412;28;20035;-83
2021/11/30 10:30:50;;;;;;;5.90;2.33;;;10.20;99.90;;;;;;5053319;28;20029;-85
2021/11/30 10:33:22;;;;;;;20.10;4.75;;;10.20;99.90;;;;;;5047051;28;20021;-84
2021/11/30 10:35:54;;;;;;;19.88;3.08;;;10.20;99.90;;;;;;5048281;28;20039;-82
2021/11/30 10:38:22;;;;;;;6.90;2.15;;;10.20;99.90;;;;;;5039672;28;20047;-71
2021/11/30 10:40:48;;;;;;;10.80;2.45;;;10.20;99.90;;;;;;5050453;28;20157;-86
2021/11/30 10:43:17;;;;;;;9.13;2.47;;;10.20;99.90;;;;;;5052502;28;20556;-86
2021/11/30 10:45:46;;;;;;;12.70;3.13;;;10.20;99.90;;;;;;5053402;28;20025;-84
2021/11/30 10:48:15;;;;;;;6.78;2.60;;;10.20;99.90;;;;;;5054282;28;20029;-84
2021/11/30 10:51:00;;;;;;;13.35;2.85;;;10.30;99.90;;;;;;5052511;28;20086;-84
2021/11/30 10:53:28;;;;;;;12.02;2.65;;;10.30;99.90;;;;;;5039212;28;20033;-85
2021/11/30 10:56:01;;;;;;;6.78;2.15;;;10.30;99.90;;;;;;5052329;28;20067;-84
2021/11/30 10:58:35;;;;;;;11.07;2.97;;;10.30;99.90;;;;;;5053836;28;20029;-82
2021/11/30 11:01:07;;;;;;;7.80;2.20;;;10.30;99.90;;;;;;5063730;28;20431;-83
2021/11/30 11:03:33;;;;;;;9.27;2.30;;;10.20;99.90;;;;;;5054965;28;20032;-83
2021/11/30 11:08:55;;;;;;;9.55;2.75;;;10.20;99.90;;;;;;5052755;28;20110;-82
2021/11/30 11:11:26;;;;;;;9.55;2.72;;;10.10;99.90;;;;;;5051418;28;20025;-82
2021/11/30 11:13:52;;;;;;;;;;;10.10;99.90;;;;;;5058514;28;20044;-82
2021/11/30 11:16:37;;;;;;;3.97;1.98;;;10.10;99.90;;;;;;5062988;28;19913;-82
2021/11/30 11:19:08;;;;;;;10.68;3.10;;;10.10;99.90;;;;;;5046538;28;20032;-80
2021/11/30 11:21:35;;;;;;;13.63;2.67;;;10.20;99.90;;;;;;5051769;28;20028;-80
2021/11/30 11:24:08;;;;;;;12.32;2.67;;;10.10;99.90;;;;;;5051520;28;20053;-83
2021/11/30 11:26:44;;;;;;;3.95;2.22;;;10.10;99.90;;;;;;5051555;28;20077;-82
2021/11/30 11:29:11;;;;;;;8.82;2.72;;;10.10;99.90;;;;;;5042375;28;20025;-81
2021/11/30 11:31:40;;;;;;;6.72;2.05;;;10.10;99.90;;;;;;5051436;28;20059;-80
2021/11/30 11:34:08;;;;;;;16.08;2.72;;;10.10;99.90;;;;;;5052275;28;20028;-80
2021/11/30 11:36:34;;;;;;;4.55;2.25;;;10.10;99.90;;;;;;5055361;28;20037;-82
2021/11/30 11:39:01;;;;;;;5.55;2.95;;;10.20;99.90;;;;;;5055344;28;20033;-80
2021/11/30 11:41:28;;;;;;;5.50;2.20;;;10.10;99.90;;;;;;5055581;28;20025;-81
2021/11/30 11:43:55;;;;;;;7.53;2.63;;;10.10;99.90;;;;;;5051773;28;20078;-82
2021/11/30 11:46:21;;;;;;;4.97;2.40;;;10.10;99.90;;;;;;5055203;28;20032;-81
2021/11/30 11:48:55;;;;;;;8.57;2.15;;;10.10;99.90;;;;;;5055515;28;20473;-82
2021/11/30 11:51:20;;;;;;;5.75;2.42;;;10.10;99.90;;;;;;5054790;28;20029;-73
2021/11/30 11:53:55;;;;;;;9.95;2.67;;;10.10;99.90;;;;;;5055973;28;20021;-83
2021/11/30 11:56:24;;;;;;;11.43;2.72;;;10.10;99.90;;;;;;5057011;28;20025;-83
2021/11/30 11:59:09;;;;;;;8.45;3.08;;;10.10;99.90;;;;;;5056831;28;20485;-84
2021/11/30 12:01:36;;;;;;;5.97;2.47;;;10.10;99.90;;;;;;5055403;28;20028;-82
2021/11/30 12:04:06;;;;;;;10.98;2.90;;;10.20;99.90;;;;;;5055432;28;20456;-82
2021/11/30 12:06:49;;;;;;;9.57;3.28;;;10.20;99.90;;;;;;5054349;28;20031;-81
2021/11/30 12:09:24;;;;;;;6.70;2.58;;;10.20;99.90;;;;;;5055238;28;20388;-80
2021/11/30 12:12:13;;;;;;;13.45;3.30;;;10.20;99.90;;;;;;5055821;28;20439;-80
2021/11/30 12:14:44;;;;;;;8.02;3.00;;;10.20;99.90;;;;;;5045249;28;20116;-82
2021/11/30 12:17:27;;;;;;;9.05;3.30;;;10.20;99.90;;;;;;5056460;28;20024;-80
2021/11/30 12:19:59;;;;;;;16.42;3.65;;;10.20;99.90;;;;;;5055636;28;20033;-82
2021/11/30 12:22:45;;;;;;;10.43;3.25;;;10.10;99.90;;;;;;5055488;28;20025;-81
2021/11/30 12:25:27;;;;;;;8.70;3.00;;;10.20;99.90;;;;;;5038498;28;20029;-81
2021/11/30 12:27:54;;;;;;;11.40;2.60;;;10.20;99.90;;;;;;5036143;28;20473;-81
2021/11/30 12:30:49;;;;;;;13.70;3.42;;;10.20;99.90;;;;;;5040758;28;20048;-82
2021/11/30 12:33:53;;;;;;;5.78;2.65;;;10.20;99.90;;;;;;5040591;28;20025;-83
2021/11/30 12:36:31;;;;;;;11.32;2.90;;;10.20;99.90;;;;;;5050692;28;20473;-83
2021/11/30 12:38:59;;;;;;;9.40;3.28;;;10.20;99.90;;;;;;5043432;28;20123;-83
2021/11/30 12:41:46;;;;;;;9.23;2.47;;;10.20;99.90;;;;;;5044635;28;20029;-83
2021/11/30 12:44:21;;;;;;;4.85;3.47;;;10.20;99.90;;;;;;5039424;28;20033;-83
2021/11/30 12:46:50;;;;;;;7.60;3.08;;;10.20;99.90;;;;;;5048054;28;20025;-83
2021/11/30 12:49:31;;;;;;;10.10;3.08;;;10.20;99.90;;;;;;5060612;28;20024;-83
2021/11/30 12:52:16;;;;;;;13.25;3.50;;;10.20;99.90;;;;;;5059944;28;20481;-83
2021/11/30 12:54:54;;;;;;;7.47;2.78;;;10.20;99.90;;;;;;5059814;28;20028;-83
2021/11/30 12:57:28;;;;;;;6.47;2.83;;;10.20;99.90;;;;;;5070349;28;20036;-83
2021/11/30 12:59:56;;;;;;;9.77;3.05;;;10.20;99.90;;;;;;5069078;28;20089;-81
2021/11/30 13:02:34;;;;;;;11.60;3.05;;;10.30;99.90;;;;;;5057360;28;20358;-83
2021/11/30 13:05:09;;;;;;;16.27;3.50;;;10.30;99.90;;;;;;5054860;28;20124;-83
2021/11/30 13:07:59;;;;;;;6.80;2.65;;;10.30;99.90;;;;;;5053831;28;20045;-84
2021/11/30 13:10:27;;;;;;;10.02;3.38;;;10.30;99.90;;;;;;5042300;28;20041;-83
2021/11/30 13:12:59;;;;;;;12.88;3.85;;;10.20;99.90;;;;;;5054493;28;20358;-82
2021/11/30 13:15:25;;;;;;;15.75;3.38;;;10.30;99.90;;;;;;5053597;28;20039;-84